Time;durP1;ratioP1;P1;durP2;ratioP2;P2;SDS_P1;SDS_P2;PMS_P1;PMS_P2;Temp;Humidity;BMP_temperature;BMP_pressure;BME280_temperature;BME280_humidity;BME280_pressure;Samples;Min_cycle;Max_cycle;Signal;HPM_P1;HPM_P2
2021/12/04 00:00:00;;;;;;;28.80;16.60;;;-0.60;99.90;;;;;;5092469;28;20215;-60
2021/12/04 00:02:27;;;;;;;29.87;16.93;;;-0.60;99.90;;;;;;5092614;28;20299;-61
2021/12/04 00:04:55;;;;;;;28.20;17.00;;;-0.60;99.90;;;;;;5092466;28;20203;-61
2021/12/04 00:07:23;;;;;;;29.87;16.77;;;-0.60;99.90;;;;;;5092612;28;20215;-62
2021/12/04 00:09:51;;;;;;;32.40;17.83;;;-0.60;99.90;;;;;;5092629;28;20208;-61
2021/12/04 00:12:19;;;;;;;31.87;18.27;;;-0.60;99.90;;;;;;5092164;28;20208;-64
2021/12/04 00:14:46;;;;;;;29.37;16.30;;;-0.60;99.90;;;;;;5092441;28;20219;-61
2021/12/04 00:17:15;;;;;;;28.87;17.57;;;-0.70;99.90;;;;;;5092341;28;20567;-64
2021/12/04 00:19:42;;;;;;;28.57;17.30;;;-0.70;99.90;;;;;;5092668;28;20200;-64
2021/12/04 00:22:09;;;;;;;31.10;18.17;;;-0.70;99.90;;;;;;5092622;28;20203;-63
2021/12/04 00:24:36;;;;;;;29.50;17.20;;;-0.70;99.90;;;;;;5092302;28;20220;-61
2021/12/04 00:27:03;;;;;;;32.97;17.87;;;-0.80;99.90;;;;;;5092408;28;20208;-60
2021/12/04 00:29:31;;;;;;;33.37;18.33;;;-0.80;99.90;;;;;;5092251;28;20215;-60
2021/12/04 00:32:00;;;;;;;29.50;16.70;;;-0.80;99.90;;;;;;5092024;28;20465;-64
2021/12/04 00:34:31;;;;;;;31.00;18.33;;;-0.90;99.90;;;;;;5092099;28;20558;-63
2021/12/04 00:37:13;;;;;;;31.27;17.77;;;-0.90;99.90;;;;;;5092009;28;20270;-60
2021/12/04 00:50:39;;;;;;;36.57;21.03;;;-1.00;99.90;;;;;;5091837;28;20191;-62
2021/12/04 00:53:06;;;;;;;31.20;18.77;;;-1.10;99.90;;;;;;5092057;28;20199;-61
2021/12/04 00:55:33;;;;;;;32.60;19.40;;;-1.00;99.90;;;;;;5091820;28;20224;-61
2021/12/04 00:57:59;;;;;;;30.53;18.70;;;-1.00;99.90;;;;;;5091700;28;20215;-61
2021/12/04 01:00:26;;;;;;;31.53;18.73;;;-1.00;99.90;;;;;;5091925;28;20656;-61
2021/12/04 01:02:53;;;;;;;34.23;20.03;;;-1.00;99.90;;;;;;5091906;28;20204;-60
2021/12/04 01:05:20;;;;;;;33.17;19.97;;;-1.00;99.90;;;;;;5091519;28;20206;-59
2021/12/04 01:07:48;;;;;;;32.60;19.13;;;-1.00;99.90;;;;;;5091730;28;20223;-61
2021/12/04 01:10:15;;;;;;;29.63;18.13;;;-1.00;99.90;;;;;;5091736;28;20204;-61
2021/12/04 01:12:42;;;;;;;28.30;17.20;;;-1.10;99.90;;;;;;5091469;28;20212;-60
2021/12/04 01:15:10;;;;;;;31.07;18.33;;;-1.10;99.90;;;;;;5091718;28;20220;-62
2021/12/04 01:17:37;;;;;;;28.00;16.87;;;-1.00;99.90;;;;;;5091798;28;20211;-61
2021/12/04 01:20:04;;;;;;;27.57;17.90;;;-1.00;99.90;;;;;;5091613;28;20200;-59
2021/12/04 01:22:33;;;;;;;30.20;16.97;;;-1.10;99.90;;;;;;5091452;28;20210;-60
2021/12/04 01:25:02;;;;;;;30.23;16.93;;;-1.10;99.90;;;;;;5091757;28;20614;-60
2021/12/04 01:27:29;;;;;;;33.80;17.77;;;-1.10;99.90;;;;;;5091413;28;20208;-60
2021/12/04 01:29:56;;;;;;;33.47;16.73;;;-1.10;99.90;;;;;;5091758;28;20207;-60
2021/12/04 01:32:22;;;;;;;29.27;17.23;;;-1.10;99.90;;;;;;5091583;28;20668;-61
2021/12/04 01:34:49;;;;;;;30.53;17.60;;;-1.10;99.90;;;;;;5091622;28;20220;-62
2021/12/04 01:37:16;;;;;;;26.27;16.93;;;-1.00;99.90;;;;;;5091743;28;20652;-60
2021/12/04 01:39:43;;;;;;;28.97;16.97;;;-1.10;99.90;;;;;;5079571;28;20578;-61
2021/12/04 01:42:11;;;;;;;30.17;17.57;;;-1.10;99.90;;;;;;5079399;28;20232;-61
2021/12/04 01:44:38;;;;;;;28.97;17.23;;;-1.00;99.90;;;;;;5071127;28;20726;-60
2021/12/04 01:47:13;;;;;;;29.53;16.93;;;-1.00;99.90;;;;;;5071097;28;20563;-61
2021/12/04 01:49:40;;;;;;;27.97;17.70;;;-1.10;99.90;;;;;;5096632;28;20203;-60
2021/12/04 01:52:08;;;;;;;27.83;17.07;;;-1.10;99.90;;;;;;5115238;28;20199;-60
2021/12/04 01:54:34;;;;;;;28.20;16.70;;;-1.10;99.90;;;;;;5115124;28;20232;-61
2021/12/04 01:57:02;;;;;;;28.50;17.43;;;-1.10;99.90;;;;;;5114640;28;20203;-62
2021/12/04 01:59:30;;;;;;;28.63;16.37;;;-1.20;99.90;;;;;;5096789;27;20204;-62
2021/12/04 02:01:58;;;;;;;27.13;16.13;;;-1.20;99.90;;;;;;5094810;28;20204;-60
2021/12/04 02:04:25;;;;;;;29.53;17.70;;;-1.30;99.90;;;;;;5094835;28;20558;-61
2021/12/04 02:06:51;;;;;;;31.93;16.63;;;-1.30;99.90;;;;;;5094623;28;20204;-61
2021/12/04 02:09:18;;;;;;;28.83;16.13;;;-1.30;99.90;;;;;;5083345;28;20201;-60
2021/12/04 02:11:45;;;;;;;28.30;16.73;;;-1.30;99.90;;;;;;5093511;28;20196;-59
2021/12/04 02:14:13;;;;;;;28.17;16.20;;;-1.30;99.90;;;;;;5094087;28;20230;-61
2021/12/04 02:16:41;;;;;;;28.67;16.43;;;-1.30;99.90;;;;;;5094490;28;20208;-61
2021/12/04 02:19:08;;;;;;;27.50;16.03;;;-1.30;99.90;;;;;;5074207;28;20200;-60
2021/12/04 02:21:36;;;;;;;30.50;16.47;;;-1.30;99.90;;;;;;5089457;28;20218;-60
2021/12/04 02:24:03;;;;;;;28.77;16.30;;;-1.30;99.90;;;;;;5089792;28;20660;-60
2021/12/04 02:26:30;;;;;;;29.23;17.20;;;-1.40;99.90;;;;;;5094169;28;20206;-60
2021/12/04 02:28:57;;;;;;;26.63;15.70;;;-1.40;99.90;;;;;;5094125;28;20220;-60
2021/12/04 02:31:24;;;;;;;27.87;16.07;;;-1.40;99.90;;;;;;5094006;28;20204;-61
2021/12/04 02:33:51;;;;;;;25.07;16.43;;;-1.40;99.90;;;;;;5094449;28;20570;-61
2021/12/04 02:36:20;;;;;;;26.77;17.33;;;-1.40;99.90;;;;;;5093767;28;20319;-61
2021/12/04 02:38:51;;;;;;;27.03;16.70;;;-1.40;99.90;;;;;;5081620;28;20560;-60
2021/12/04 02:41:19;;;;;;;26.97;16.73;;;-1.50;99.90;;;;;;5093748;28;20189;-62
2021/12/04 02:43:46;;;;;;;27.03;15.73;;;-1.50;99.90;;;;;;5094238;28;20196;-62
2021/12/04 02:46:13;;;;;;;26.70;15.80;;;-1.50;99.90;;;;;;5094047;28;20277;-62
2021/12/04 02:48:41;;;;;;;26.30;15.70;;;-1.50;99.90;;;;;;5093088;28;20648;-62
2021/12/04 02:51:08;;;;;;;30.10;17.13;;;-1.50;99.90;;;;;;5090340;28;20196;-62
2021/12/04 02:53:35;;;;;;;27.00;16.83;;;-1.60;99.90;;;;;;5093708;28;20208;-60
2021/12/04 02:56:06;;;;;;;27.23;15.13;;;-1.50;99.90;;;;;;5093686;28;20222;-61
2021/12/04 02:58:33;;;;;;;29.87;16.17;;;-1.60;99.90;;;;;;5093857;28;20192;-62
2021/12/04 03:01:00;;;;;;;26.13;14.70;;;-1.50;99.90;;;;;;5093934;28;20223;-61
2021/12/04 03:03:27;;;;;;;28.37;15.10;;;-1.50;99.90;;;;;;5093618;28;20214;-61
2021/12/04 03:05:54;;;;;;;30.77;15.97;;;-1.50;99.90;;;;;;5093778;28;20230;-61
2021/12/04 03:08:22;;;;;;;25.40;14.97;;;-1.40;99.90;;;;;;5093501;28;20206;-63
2021/12/04 03:10:49;;;;;;;26.47;15.30;;;-1.40;99.90;;;;;;5093594;28;20207;-60
2021/12/04 03:13:20;;;;;;;25.63;14.53;;;-1.50;99.90;;;;;;5093631;28;20544;-61
2021/12/04 03:15:57;;;;;;;24.60;14.63;;;-1.40;99.90;;;;;;5093451;28;20223;-61
2021/12/04 03:18:24;;;;;;;23.97;13.90;;;-1.40;99.90;;;;;;5093233;28;20195;-61
2021/12/04 03:20:52;;;;;;;24.53;15.00;;;-1.40;99.90;;;;;;5093275;28;20204;-60
2021/12/04 03:23:26;;;;;;;24.27;14.10;;;-1.30;99.90;;;;;;5093446;28;20200;-61
2021/12/04 03:25:56;;;;;;;25.27;13.60;;;-1.30;99.90;;;;;;5093398;28;20539;-61
2021/12/04 03:28:25;;;;;;;22.43;14.17;;;-1.30;99.90;;;;;;5093446;28;20257;-61
2021/12/04 03:30:55;;;;;;;25.13;14.47;;;-1.30;99.90;;;;;;5093211;28;20205;-61
2021/12/04 03:41:34;;;;;;;23.80;14.17;;;-1.30;99.90;;;;;;5092848;28;20243;-60
2021/12/04 03:44:02;;;;;;;26.80;14.87;;;-1.30;99.90;;;;;;5092508;28;20192;-61
2021/12/04 03:46:29;;;;;;;23.50;14.20;;;-1.30;99.90;;;;;;5093128;28;20231;-61
2021/12/04 03:48:55;;;;;;;26.50;14.60;;;-1.30;99.90;;;;;;5091948;28;20200;-61
2021/12/04 03:51:23;;;;;;;21.47;12.83;;;-1.30;99.90;;;;;;5092110;28;20196;-60
2021/12/04 03:53:50;;;;;;;25.63;14.10;;;-1.30;99.90;;;;;;5092704;28;20232;-61
2021/12/04 03:56:21;;;;;;;24.17;14.57;;;-1.40;99.90;;;;;;5092595;28;20230;-61
2021/12/04 03:58:48;;;;;;;30.30;16.13;;;-1.30;99.90;;;;;;5092629;28;20223;-60
2021/12/04 04:01:17;;;;;;;26.00;14.47;;;-1.40;99.90;;;;;;5092703;28;20208;-61
2021/12/04 04:03:43;;;;;;;22.90;14.13;;;-1.40;99.90;;;;;;5092584;28;20555;-61
2021/12/04 04:06:10;;;;;;;26.93;14.67;;;-1.40;99.90;;;;;;5092714;28;20235;-63
2021/12/04 04:08:37;;;;;;;27.00;14.50;;;-1.40;99.90;;;;;;5092709;28;20210;-61
2021/12/04 04:11:04;;;;;;;27.37;14.83;;;-1.30;99.90;;;;;;5092139;28;20204;-61
2021/12/04 04:13:31;;;;;;;22.13;14.20;;;-1.30;99.90;;;;;;5091693;28;20295;-59
2021/12/04 04:16:00;;;;;;;26.70;14.67;;;-1.30;99.90;;;;;;5092338;28;20699;-61
2021/12/04 04:18:30;;;;;;;24.03;14.77;;;-1.30;99.90;;;;;;5092503;28;20723;-61
2021/12/04 04:20:58;;;;;;;23.40;14.57;;;-1.30;99.90;;;;;;5092296;28;20682;-60
2021/12/04 04:23:24;;;;;;;24.43;14.23;;;-1.40;99.90;;;;;;5092474;28;20200;-60
2021/12/04 04:25:51;;;;;;;28.77;15.23;;;-1.40;99.90;;;;;;5092145;28;20204;-61
2021/12/04 04:28:18;;;;;;;27.07;14.83;;;-1.40;99.90;;;;;;5092599;28;20214;-61
2021/12/04 04:30:45;;;;;;;25.03;13.50;;;-1.40;99.90;;;;;;5092205;28;20212;-61
2021/12/04 04:33:14;;;;;;;24.23;13.70;;;-1.40;99.90;;;;;;5092233;28;20672;-61
2021/12/04 04:35:44;;;;;;;24.30;13.60;;;-1.40;99.90;;;;;;5091897;28;20216;-61
2021/12/04 04:38:23;;;;;;;25.70;14.90;;;-1.40;99.90;;;;;;5091834;28;20211;-61
2021/12/04 04:58:02;;;;;;;23.43;14.27;;;-1.40;99.90;;;;;;4989762;28;20689;-61
2021/12/04 05:00:48;;;;;;;24.03;15.57;;;-1.50;99.90;;;;;;5071188;28;20218;-63
2021/12/04 05:11:37;;;;;;;22.73;14.27;;;-1.70;99.90;;;;;;5090911;28;20273;-64
2021/12/04 05:14:05;;;;;;;24.33;14.57;;;-1.70;99.90;;;;;;5091496;28;20188;-62
2021/12/04 05:16:43;;;;;;;23.20;13.77;;;-1.70;99.90;;;;;;5091255;28;20219;-64
2021/12/04 05:19:26;;;;;;;23.47;14.30;;;-1.80;99.90;;;;;;5091403;28;20189;-60
2021/12/04 05:21:53;;;;;;;25.37;14.17;;;-1.70;99.90;;;;;;5091552;28;20486;-61
2021/12/04 05:24:21;;;;;;;26.63;14.77;;;-1.70;99.90;;;;;;5092399;28;20222;-61
2021/12/04 05:26:48;;;;;;;24.47;14.23;;;-1.70;99.90;;;;;;5094908;28;20204;-60
2021/12/04 05:29:15;;;;;;;25.77;15.20;;;-1.70;99.90;;;;;;5093161;28;20295;-61
2021/12/04 05:31:42;;;;;;;24.63;14.33;;;-1.70;99.90;;;;;;5094993;28;20219;-61
2021/12/04 05:34:09;;;;;;;28.33;14.43;;;-1.70;99.90;;;;;;5095395;28;20230;-62
2021/12/04 05:36:35;;;;;;;27.33;13.90;;;-1.70;99.90;;;;;;5094856;28;20227;-62
2021/12/04 05:39:03;;;;;;;23.57;15.30;;;-1.70;99.90;;;;;;5095320;28;20211;-62
2021/12/04 05:41:32;;;;;;;24.53;15.33;;;-1.70;99.90;;;;;;5094798;28;20604;-60
2021/12/04 05:44:03;;;;;;;22.30;13.63;;;-1.80;99.90;;;;;;5095232;28;20195;-61
2021/12/04 05:46:36;;;;;;;25.87;14.33;;;-1.80;99.90;;;;;;5080492;28;20189;-62
2021/12/04 05:49:07;;;;;;;23.53;13.47;;;-1.70;99.90;;;;;;5074869;28;20203;-61
2021/12/04 05:54:45;;;;;;;24.73;13.87;;;-1.70;99.90;;;;;;5067176;28;20240;-60
2021/12/04 05:57:13;;;;;;;25.43;13.77;;;-1.70;99.90;;;;;;5074593;28;20217;-61
2021/12/04 05:59:40;;;;;;;25.87;13.60;;;-1.70;99.90;;;;;;5074513;28;20208;-61
2021/12/04 06:02:07;;;;;;;26.53;14.03;;;-1.70;99.90;;;;;;5074307;28;20215;-60
2021/12/04 06:04:34;;;;;;;22.67;13.60;;;-1.70;99.90;;;;;;5075158;28;20207;-61
2021/12/04 06:07:01;;;;;;;25.33;14.03;;;-1.70;99.90;;;;;;5074556;28;20548;-62
2021/12/04 06:09:28;;;;;;;26.40;15.03;;;-1.60;99.90;;;;;;5074391;28;20653;-62
2021/12/04 06:11:55;;;;;;;24.17;14.03;;;-1.60;99.90;;;;;;5074573;28;20209;-60
2021/12/04 06:14:23;;;;;;;28.63;15.87;;;-1.70;99.90;;;;;;5074254;28;20243;-62
2021/12/04 06:16:50;;;;;;;23.97;14.40;;;-1.80;99.90;;;;;;5074341;28;20224;-62
2021/12/04 06:19:27;;;;;;;27.83;13.87;;;-1.80;99.90;;;;;;5074371;28;20212;-62
2021/12/04 06:24:43;;;;;;;26.83;15.93;;;-1.80;99.90;;;;;;5078289;28;20206;-61
2021/12/04 06:27:10;;;;;;;29.63;17.43;;;-1.70;99.90;;;;;;5094339;28;20211;-62
2021/12/04 06:29:38;;;;;;;28.00;17.30;;;-1.70;99.90;;;;;;5094281;28;20215;-62
2021/12/04 06:32:06;;;;;;;30.03;16.00;;;-1.70;99.90;;;;;;5094348;28;20204;-62
2021/12/04 06:34:32;;;;;;;31.60;16.70;;;-1.70;99.90;;;;;;5093753;28;20215;-61
2021/12/04 06:36:59;;;;;;;30.33;16.17;;;-1.70;99.90;;;;;;5093663;28;20224;-61
2021/12/04 06:39:26;;;;;;;29.33;16.03;;;-1.60;99.90;;;;;;5088413;28;20227;-62
2021/12/04 06:41:53;;;;;;;26.80;16.77;;;-1.50;99.90;;;;;;5079676;28;20234;-62
2021/12/04 06:44:19;;;;;;;25.13;16.37;;;-1.50;99.90;;;;;;5077264;28;20208;-60
2021/12/04 06:46:48;;;;;;;26.10;15.97;;;-1.50;99.90;;;;;;5075740;28;20204;-61
2021/12/04 06:49:18;;;;;;;28.63;16.13;;;-1.40;99.90;;;;;;5073784;28;20513;-61
2021/12/04 06:51:48;;;;;;;27.20;16.27;;;-1.40;99.90;;;;;;5073923;28;20238;-61
2021/12/04 06:54:18;;;;;;;27.23;16.00;;;-1.40;99.90;;;;;;5073955;28;20659;-62
2021/12/04 06:56:46;;;;;;;24.77;14.80;;;-1.30;99.90;;;;;;5080398;28;20215;-61
2021/12/04 06:59:16;;;;;;;29.90;16.50;;;-1.30;99.90;;;;;;5093630;28;20207;-61
2021/12/04 07:01:43;;;;;;;27.37;16.53;;;-1.30;99.90;;;;;;5094063;28;20550;-61
2021/12/04 07:04:12;;;;;;;29.53;15.40;;;-1.20;99.90;;;;;;5093499;28;20204;-63
2021/12/04 07:06:39;;;;;;;25.40;15.33;;;-1.20;99.90;;;;;;5093531;28;20204;-64
2021/12/04 07:09:06;;;;;;;25.47;15.23;;;-1.20;99.90;;;;;;5093287;28;20208;-64
2021/12/04 07:11:33;;;;;;;28.10;15.80;;;-1.20;99.90;;;;;;5093297;28;20196;-64
2021/12/04 07:14:00;;;;;;;27.77;16.53;;;-1.20;99.90;;;;;;5092923;28;20555;-61
2021/12/04 07:16:27;;;;;;;25.77;15.10;;;-1.20;99.90;;;;;;5092113;28;20216;-61
2021/12/04 07:18:54;;;;;;;29.13;16.10;;;-1.20;99.90;;;;;;5093406;28;20207;-63
2021/12/04 07:21:23;;;;;;;28.20;16.00;;;-1.10;99.90;;;;;;5093269;28;20200;-62
2021/12/04 07:23:50;;;;;;;27.80;15.00;;;-1.10;99.90;;;;;;5093406;28;20200;-62
2021/12/04 07:26:18;;;;;;;27.47;15.97;;;-1.10;99.90;;;;;;5093345;28;20509;-62
2021/12/04 07:28:44;;;;;;;30.07;16.03;;;-1.10;99.90;;;;;;5093554;28;20560;-65
2021/12/04 07:31:11;;;;;;;29.03;15.40;;;-1.10;99.90;;;;;;5093369;28;20204;-63
2021/12/04 07:33:38;;;;;;;30.30;16.93;;;-1.10;99.90;;;;;;5086159;28;20193;-63
2021/12/04 07:36:05;;;;;;;30.10;16.67;;;-1.00;99.90;;;;;;5072355;28;20235;-61
2021/12/04 07:38:34;;;;;;;31.60;18.00;;;-1.00;99.90;;;;;;5072692;28;20210;-62
2021/12/04 07:41:03;;;;;;;32.57;16.93;;;-0.90;99.90;;;;;;5072614;28;20212;-62
2021/12/04 07:43:30;;;;;;;28.73;16.53;;;-0.90;99.90;;;;;;5072087;28;20305;-61
2021/12/04 07:45:57;;;;;;;35.57;18.40;;;-0.90;99.90;;;;;;5072620;28;20208;-63
2021/12/04 07:48:24;;;;;;;30.50;17.80;;;-0.80;99.90;;;;;;5071461;28;20258;-62
2021/12/04 07:50:51;;;;;;;31.03;17.57;;;-0.80;99.90;;;;;;5083761;28;20215;-62
2021/12/04 07:53:18;;;;;;;34.50;18.53;;;-0.80;99.90;;;;;;5092343;28;20508;-61
2021/12/04 07:55:46;;;;;;;34.37;18.10;;;-0.80;99.90;;;;;;5092694;28;20203;-63
2021/12/04 07:58:13;;;;;;;36.87;18.70;;;-0.80;99.90;;;;;;5088578;28;20321;-61
2021/12/04 08:00:40;;;;;;;33.23;19.47;;;-0.70;99.90;;;;;;5072123;28;20258;-62
2021/12/04 08:03:07;;;;;;;32.87;18.57;;;-0.70;99.90;;;;;;5072295;28;20211;-62
2021/12/04 08:05:34;;;;;;;37.37;19.13;;;-0.80;99.90;;;;;;5072263;28;20205;-61
2021/12/04 08:08:01;;;;;;;31.30;16.43;;;-0.80;99.90;;;;;;5072307;28;20200;-62
2021/12/04 08:10:28;;;;;;;31.83;18.33;;;-0.80;99.90;;;;;;5084131;28;20204;-61
2021/12/04 08:12:58;;;;;;;33.20;17.90;;;-0.70;99.90;;;;;;5092134;28;20219;-62
2021/12/04 08:15:25;;;;;;;32.87;18.60;;;-0.60;99.90;;;;;;5092156;28;20204;-62
2021/12/04 08:17:51;;;;;;;32.27;18.50;;;-0.60;99.90;;;;;;5092302;28;20227;-61
2021/12/04 08:20:18;;;;;;;35.53;20.03;;;-0.50;99.90;;;;;;5092165;28;20230;-62
2021/12/04 08:22:45;;;;;;;33.70;18.87;;;-0.50;99.90;;;;;;5092368;28;20257;-62
2021/12/04 08:25:15;;;;;;;33.87;18.53;;;-0.40;99.90;;;;;;5091902;28;20200;-62
2021/12/04 08:27:42;;;;;;;33.40;17.93;;;-0.40;99.90;;;;;;5084647;28;20675;-61
2021/12/04 08:30:14;;;;;;;32.80;18.13;;;-0.30;99.90;;;;;;5075433;28;20551;-62
2021/12/04 08:32:41;;;;;;;31.93;18.47;;;-0.30;99.90;;;;;;5090207;28;20196;-63
2021/12/04 08:35:10;;;;;;;30.30;17.97;;;-0.20;99.90;;;;;;5071538;28;20209;-62
2021/12/04 08:37:37;;;;;;;30.03;18.27;;;-0.20;99.90;;;;;;5079430;28;20222;-65
2021/12/04 08:40:09;;;;;;;35.33;19.80;;;-0.10;99.90;;;;;;5091921;28;20568;-63
2021/12/04 08:42:36;;;;;;;37.70;18.53;;;-0.10;99.90;;;;;;5091861;28;20236;-63
2021/12/04 08:45:03;;;;;;;31.80;18.47;;;-0.20;99.90;;;;;;5091802;28;20543;-64
2021/12/04 08:47:33;;;;;;;36.80;19.33;;;-0.20;99.90;;;;;;5092093;28;20554;-61
2021/12/04 08:49:59;;;;;;;38.53;21.70;;;-0.10;99.90;;;;;;5091677;28;20261;-63
2021/12/04 08:52:26;;;;;;;36.67;20.03;;;-0.10;99.90;;;;;;5091333;28;20207;-64
2021/12/04 08:54:53;;;;;;;33.17;18.40;;;0.00;99.90;;;;;;5091352;28;20220;-63
2021/12/04 08:57:20;;;;;;;33.73;19.40;;;0.10;99.90;;;;;;5091322;28;20688;-62
2021/12/04 08:59:47;;;;;;;35.63;18.63;;;0.10;99.90;;;;;;5095033;28;20223;-62
2021/12/04 09:02:15;;;;;;;35.57;20.57;;;0.10;99.90;;;;;;5095943;28;20508;-62
2021/12/04 09:04:44;;;;;;;34.23;19.73;;;0.20;99.90;;;;;;5096130;28;20567;-61
2021/12/04 09:07:11;;;;;;;36.90;20.63;;;0.20;99.90;;;;;;5095904;28;20199;-63
2021/12/04 09:09:38;;;;;;;33.23;18.87;;;0.30;99.90;;;;;;5095143;28;20206;-62
2021/12/04 09:12:10;;;;;;;66.77;37.60;;;0.30;99.90;;;;;;5095866;28;20581;-63
2021/12/04 09:14:40;;;;;;;41.97;23.63;;;0.40;99.90;;;;;;5096045;28;20242;-64
2021/12/04 09:17:09;;;;;;;33.20;19.90;;;0.40;99.90;;;;;;5095609;28;20581;-63
2021/12/04 09:19:36;;;;;;;37.50;20.90;;;0.50;99.90;;;;;;5095665;28;20203;-61
2021/12/04 09:22:07;;;;;;;38.27;20.00;;;0.50;99.90;;;;;;5094950;28;20200;-64
2021/12/04 09:24:39;;;;;;;37.80;21.13;;;0.60;99.90;;;;;;5083601;28;20759;-62
2021/12/04 09:27:13;;;;;;;36.57;21.43;;;0.60;99.90;;;;;;5094436;28;20283;-62
2021/12/04 09:29:49;;;;;;;39.63;22.00;;;0.70;99.90;;;;;;5091144;28;20224;-63
2021/12/04 09:35:18;;;;;;;41.63;21.80;;;0.80;99.90;;;;;;5095112;28;20187;-62
2021/12/04 09:59:12;;;;;;;38.07;21.53;;;0.90;99.90;;;;;;5094953;28;20206;-64
2021/12/04 10:00:18;;;;;;;45.37;22.87;;;1.20;99.90;;;;;;5094522;28;20184;-62
2021/12/04 10:03:05;;;;;;;43.97;22.47;;;1.20;99.90;;;;;;5094939;28;20653;-61
2021/12/04 10:11:31;;;;;;;36.30;21.27;;;1.40;99.90;;;;;;5093505;28;20241;-62
2021/12/04 10:22:34;;;;;;;36.80;20.47;;;1.60;99.90;;;;;;5086635;28;20200;-62
2021/12/04 10:33:27;;;;;;;33.70;18.57;;;1.60;99.90;;;;;;5094151;28;20554;-62
2021/12/04 10:35:54;;;;;;;36.60;18.70;;;1.70;99.90;;;;;;5094196;28;20200;-62
2021/12/04 10:38:23;;;;;;;30.27;17.80;;;1.80;99.90;;;;;;5094421;28;20574;-63
2021/12/04 10:40:51;;;;;;;34.07;19.73;;;1.80;99.90;;;;;;5094059;28;20302;-63
2021/12/04 10:43:22;;;;;;;36.53;20.20;;;1.80;99.90;;;;;;5093445;28;20281;-64
2021/12/04 10:45:52;;;;;;;30.60;18.30;;;1.80;99.90;;;;;;5091705;28;20189;-63
2021/12/04 10:48:22;;;;;;;33.00;19.03;;;1.90;99.90;;;;;;5073830;28;20300;-62
2021/12/04 10:50:57;;;;;;;44.43;23.87;;;1.90;99.90;;;;;;5073639;28;20571;-61
2021/12/04 10:53:25;;;;;;;37.70;20.80;;;2.00;99.90;;;;;;5074563;28;20200;-63
2021/12/04 10:55:56;;;;;;;38.63;20.93;;;2.00;99.90;;;;;;5073655;28;20205;-62
2021/12/04 11:01:24;;;;;;;37.77;19.10;;;2.10;99.90;;;;;;5073537;28;20189;-62
2021/12/04 11:04:00;;;;;;;35.93;18.13;;;2.20;99.90;;;;;;5083100;28;20245;-62
2021/12/04 11:06:43;;;;;;;32.10;18.63;;;2.20;99.90;;;;;;5093244;28;20199;-62
2021/12/04 11:21:01;;;;;;;35.23;20.10;;;2.40;99.90;;;;;;5088837;28;20676;-63
2021/12/04 11:37:34;;;;;;;29.47;17.10;;;2.50;99.90;;;;;;5072666;28;20580;-62
2021/12/04 11:40:11;;;;;;;28.50;16.07;;;2.50;99.90;;;;;;5072554;28;20245;-60
2021/12/04 11:42:41;;;;;;;24.57;14.70;;;2.50;99.90;;;;;;5072299;28;20232;-61
2021/12/04 11:45:16;;;;;;;25.33;14.87;;;2.60;99.90;;;;;;5072644;28;20204;-62
2021/12/04 11:47:48;;;;;;;25.83;13.60;;;2.60;99.90;;;;;;5072586;28;20633;-63
2021/12/04 11:50:21;;;;;;;25.83;15.73;;;2.70;99.90;;;;;;5083322;28;20218;-65
2021/12/04 11:52:51;;;;;;;26.57;14.40;;;2.70;99.90;;;;;;5092775;28;20206;-64
2021/12/04 11:55:20;;;;;;;24.83;14.57;;;2.70;99.90;;;;;;5093112;28;20560;-62
2021/12/04 11:57:48;;;;;;;24.57;14.73;;;2.70;99.90;;;;;;5086869;28;20215;-62
2021/12/04 12:00:21;;;;;;;25.57;14.40;;;2.70;99.90;;;;;;5092709;28;20200;-62
2021/12/04 12:02:50;;;;;;;23.90;13.90;;;2.70;99.90;;;;;;5092265;28;20664;-62
2021/12/04 12:05:19;;;;;;;27.43;14.97;;;2.70;99.90;;;;;;5092175;28;20200;-63
2021/12/04 12:07:55;;;;;;;25.90;14.40;;;2.70;99.90;;;;;;5079700;28;20192;-62
2021/12/04 12:10:25;;;;;;;24.83;13.40;;;2.70;99.90;;;;;;5091926;28;20192;-62
2021/12/04 12:12:53;;;;;;;67.03;38.77;;;2.70;99.90;;;;;;5092286;28;20602;-63
2021/12/04 12:15:28;;;;;;;41.67;21.97;;;2.60;99.90;;;;;;5092325;28;20204;-61
2021/12/04 12:17:57;;;;;;;28.30;15.73;;;2.60;99.90;;;;;;5091768;28;20211;-62
2021/12/04 12:20:38;;;;;;;29.33;16.27;;;2.60;99.90;;;;;;5091594;28;20204;-63
2021/12/04 12:23:08;;;;;;;28.43;16.10;;;2.70;99.90;;;;;;5092418;28;20192;-64
2021/12/04 12:25:52;;;;;;;28.90;16.53;;;2.70;99.90;;;;;;5092305;28;20654;-61
2021/12/04 12:34:02;;;;;;;29.33;16.17;;;2.80;99.90;;;;;;5091526;28;20659;-64
2021/12/04 12:36:30;;;;;;;25.83;15.17;;;2.80;99.90;;;;;;5092334;28;20615;-62
2021/12/04 12:38:59;;;;;;;27.27;16.47;;;2.80;99.90;;;;;;5091915;28;20327;-61
2021/12/04 12:41:29;;;;;;;26.40;16.30;;;2.70;99.90;;;;;;5091291;28;20317;-64
2021/12/04 12:44:07;;;;;;;29.73;15.70;;;2.70;99.90;;;;;;5092142;28;20370;-61
2021/12/04 12:46:39;;;;;;;32.07;16.63;;;2.70;99.90;;;;;;5091835;28;20552;-61
2021/12/04 12:49:20;;;;;;;31.03;17.47;;;2.70;99.90;;;;;;5091790;28;20211;-61
2021/12/04 12:51:54;;;;;;;28.80;16.40;;;2.70;99.90;;;;;;5090797;28;20203;-63
2021/12/04 12:54:25;;;;;;;32.53;15.93;;;2.70;99.90;;;;;;5091675;28;20191;-61
2021/12/04 12:56:59;;;;;;;32.30;17.07;;;2.70;99.90;;;;;;5091992;28;20249;-62
2021/12/04 12:59:36;;;;;;;31.73;16.87;;;2.70;99.90;;;;;;5091590;28;20243;-64
2021/12/04 13:13:27;;;;;;;34.10;18.90;;;2.60;99.90;;;;;;5071254;28;20200;-63
2021/12/04 13:16:00;;;;;;;33.87;19.67;;;2.60;99.90;;;;;;5081846;28;20628;-65
2021/12/04 13:18:27;;;;;;;33.10;18.47;;;2.60;99.90;;;;;;5090977;28;20234;-62
2021/12/04 13:21:01;;;;;;;37.50;20.70;;;2.60;99.90;;;;;;5091798;28;20203;-64
2021/12/04 13:23:28;;;;;;;38.33;21.30;;;2.50;99.90;;;;;;5091228;28;20188;-62
2021/12/04 13:25:57;;;;;;;37.23;20.73;;;2.50;99.90;;;;;;5091533;28;20207;-64
2021/12/04 13:28:26;;;;;;;36.17;20.17;;;2.50;99.90;;;;;;5090994;28;20212;-63
2021/12/04 13:30:53;;;;;;;42.50;21.27;;;2.50;99.90;;;;;;5078361;28;20555;-64
2021/12/04 13:33:21;;;;;;;43.70;20.83;;;2.50;99.90;;;;;;5091558;28;20586;-64
2021/12/04 13:35:48;;;;;;;45.10;22.60;;;2.50;99.90;;;;;;5087076;28;20210;-61
2021/12/04 13:38:20;;;;;;;43.27;22.10;;;2.40;99.90;;;;;;5091115;28;20220;-62
2021/12/04 13:40:49;;;;;;;40.17;20.27;;;2.40;99.90;;;;;;5090995;28;20559;-63
2021/12/04 13:43:17;;;;;;;41.70;20.67;;;2.40;99.90;;;;;;5090867;28;20239;-62
2021/12/04 13:45:45;;;;;;;38.23;21.07;;;2.30;99.90;;;;;;5092301;28;20196;-64
2021/12/04 13:48:13;;;;;;;38.77;19.47;;;2.30;99.90;;;;;;5094864;28;20196;-62
2021/12/04 13:50:46;;;;;;;36.50;19.20;;;2.30;99.90;;;;;;5095143;28;20691;-61
2021/12/04 13:53:21;;;;;;;40.40;20.87;;;2.20;99.90;;;;;;5094733;28;20208;-61
2021/12/04 13:55:53;;;;;;;45.93;21.23;;;2.20;99.90;;;;;;5094892;28;20192;-61
2021/12/04 13:58:20;;;;;;;41.93;22.80;;;2.20;99.90;;;;;;5094688;28;20231;-69
2021/12/04 14:00:47;;;;;;;43.77;23.40;;;2.10;99.90;;;;;;5094657;28;20200;-67
2021/12/04 14:03:14;;;;;;;53.93;25.53;;;2.10;99.90;;;;;;5094493;28;20211;-64
2021/12/04 14:05:41;;;;;;;60.70;29.60;;;2.10;99.90;;;;;;5094274;28;20219;-66
2021/12/04 14:08:10;;;;;;;59.37;30.47;;;2.10;99.90;;;;;;5094789;28;20204;-65
2021/12/04 14:10:42;;;;;;;54.27;27.87;;;2.00;99.90;;;;;;5094538;28;20204;-64
2021/12/04 14:13:10;;;;;;;57.77;29.23;;;1.90;99.90;;;;;;5094518;28;20585;-63
2021/12/04 14:15:41;;;;;;;55.17;28.50;;;1.90;99.90;;;;;;5093705;28;20196;-63
2021/12/04 14:18:10;;;;;;;64.50;33.60;;;1.80;99.90;;;;;;5094485;28;20223;-64
2021/12/04 14:20:40;;;;;;;58.97;30.50;;;1.80;99.90;;;;;;5093739;28;20204;-66
2021/12/04 14:23:07;;;;;;;56.57;29.43;;;1.80;99.90;;;;;;5093989;28;20196;-65
2021/12/04 14:25:42;;;;;;;57.57;29.40;;;1.80;99.90;;;;;;5093741;28;20283;-65
2021/12/04 14:28:11;;;;;;;68.37;34.73;;;1.70;99.90;;;;;;5093940;28;20184;-69
2021/12/04 14:30:38;;;;;;;60.63;35.00;;;1.70;99.90;;;;;;5093943;28;20204;-64
2021/12/04 14:33:07;;;;;;;60.97;33.63;;;1.60;99.90;;;;;;5093833;28;20258;-64
2021/12/04 14:35:36;;;;;;;56.17;32.10;;;1.60;99.90;;;;;;5094031;28;20207;-64
2021/12/04 14:38:06;;;;;;;60.47;32.43;;;1.60;99.90;;;;;;5093572;28;20218;-66
2021/12/04 14:40:35;;;;;;;58.03;31.30;;;1.50;99.90;;;;;;5093840;28;20674;-63
2021/12/04 14:43:05;;;;;;;57.63;34.87;;;1.50;99.90;;;;;;5093690;28;20239;-65
2021/12/04 14:45:36;;;;;;;55.77;30.50;;;1.50;99.90;;;;;;5094178;28;20196;-64
2021/12/04 14:48:06;;;;;;;59.60;34.70;;;1.40;99.90;;;;;;5093782;28;20220;-65
2021/12/04 14:50:35;;;;;;;63.43;35.03;;;1.40;99.90;;;;;;5092469;28;20197;-65
2021/12/04 14:53:07;;;;;;;67.73;38.57;;;1.30;99.90;;;;;;5093223;28;20211;-67
2021/12/04 14:55:36;;;;;;;55.90;33.10;;;1.30;99.90;;;;;;5092887;28;20283;-69
2021/12/04 14:58:07;;;;;;;56.93;32.57;;;1.30;99.90;;;;;;5092378;28;20226;-66
2021/12/04 15:00:37;;;;;;;59.47;32.13;;;1.20;99.90;;;;;;5092938;28;20188;-66